Main page
METAR-TAF:

METAR-TAF

Airports :

La Vanguardia Airport

Villavicencio, Colombia

latitude: 04-10N, longitude: 073-37W, elevation: 423 m

Current weather observation

The report was made 43 minutes ago, at 23:00 UTC
Calm wind
Temperature 27°C
Humidity 70%
Pressure 1012 hPa
Visibility 10 km or more
Few clouds at a height of 2300 ft
Scattered clouds at a height of 9000 ft

METAR: SKVV 232300Z 00000KT 9999 FEW023 SCT090 27/21 Q1012

Time: 18:43 (23:43 UTC)


TAF: missing

Weather observations and forecasts of more than 4000 airports (METAR and TAF reports).

The available stations are represented by yellow and red dots on the map.

Hover mouse over dot to see the name of the station.

Then click to see weather observations and forecasts.

To change the map : click on the green buttons with a black cross to zoom in, on the green button with a dash to zoom out, or on the green arrows for adjacent maps.


METAR-TAF: